Date,TemperatureHighF,TemperatureAvgF,TemperatureLowF,DewpointHighF,DewpointAvgF,DewpointLowF,HumidityHigh,HumidityAvg,HumidityLow,PressureMaxIn,PressureMinIn,WindSpeedMaxMPH,WindSpeedAvgMPH,GustSpeedMaxMPH,PrecipitationSumIn
2013-1-1,39.0,35.7,32.0,27.0,25.0,22.0,70,65,58,30.41,30.30,4,1,7,0.17
2013-1-2,42.0,32.4,26.0,26.0,19.7,16.0,68,60,41,30.30,30.17,4,0,8,0.02
2013-1-3,42.0,33.8,26.0,27.0,19.9,16.0,67,57,37,30.19,30.08,4,1,10,0.01
2013-1-4,46.0,41.6,39.0,33.0,29.8,26.0,66,63,58,30.30,30.15,5,2,12,0.01
2013-1-5,43.0,39.4,37.0,28.0,24.8,22.0,60,55,50,30.18,30.12,5,2,11,0.00
2013-1-6,46.0,41.3,36.0,34.0,29.3,23.0,69,62,55,30.20,30.01,6,2,13,0.30
2013-1-7,51.0,46.2,43.0,42.0,36.9,33.0,73,70,68,30.16,29.94,4,1,14,1.28
2013-1-8,51.0,47.9,43.0,42.0,38.8,34.0,73,71,66,30.16,29.84,5,1,17,0.31
2013-1-9,50.0,42.1,35.0,39.0,31.7,25.0,71,66,62,29.97,29.69,7,1,19,0.92
2013-1-10,43.0,37.7,33.0,31.0,27.9,24.0,74,68,56,30.08,29.96,5,0,7,0.08
2013-1-11,38.0,33.4,28.0,26.0,22.7,17.0,73,65,46,30.27,30.08,5,1,11,0.01
2013-1-12,39.0,31.7,26.0,25.0,20.4,15.0,70,63,48,30.36,30.26,4,1,7,0.00
2013-1-13,37.0,29.5,23.0,23.0,17.7,12.0,66,61,50,30.43,30.35,4,1,10,0.00
2013-1-14,38.0,34.2,31.0,26.0,22.9,20.0,68,63,58,30.49,30.41,4,1,10,0.03
2013-1-15,39.0,36.0,33.0,28.0,25.6,22.0,69,65,60,30.59,30.49,4,1,9,0.03
2013-1-16,39.0,36.1,34.0,27.0,25.0,23.0,68,64,58,30.58,30.44,5,2,9,0.01
2013-1-17,41.0,36.0,33.0,29.0,25.3,23.0,68,65,59,30.44,30.27,5,2,9,0.00
2013-1-18,45.0,35.7,29.0,29.0,23.8,19.0,67,62,51,30.27,30.21,6,1,10,0.00
2013-1-19,40.0,34.8,32.0,26.0,24.5,22.0,71,65,56,30.31,30.24,4,1,9,0.00
2013-1-20,42.0,34.7,31.0,26.0,23.2,22.0,70,63,48,30.32,30.21,5,1,9,0.00
2013-1-21,42.0,33.2,26.0,24.0,19.8,16.0,66,58,45,30.25,30.10,6,2,12,0.00
2013-1-22,42.0,35.0,29.0,22.0,18.8,16.0,61,52,41,30.13,29.94,6,3,11,0.00
2013-1-23,39.0,37.1,35.0,28.0,22.8,17.0,67,56,43,30.18,29.90,6,2,15,0.10
2013-1-24,45.0,40.6,36.0,34.0,29.7,25.0,70,65,57,30.20,30.07,6,2,10,0.22
2013-1-25,52.0,45.6,42.0,40.0,35.2,32.0,71,67,61,30.09,29.95,3,0,8,0.10
2013-1-26,49.0,43.6,41.0,38.0,33.0,31.0,70,66,60,30.06,29.92,3,0,12,0.18
2013-1-27,45.0,41.4,38.0,34.0,31.1,28.0,70,67,62,30.11,30.02,4,0,8,0.31
2013-1-28,44.0,42.3,39.0,35.0,32.9,30.0,71,69,66,30.15,30.05,3,0,9,0.73
2013-1-29,50.0,45.9,44.0,39.0,36.1,34.0,70,69,62,30.38,30.14,3,0,7,0.41
2013-1-30,52.0,47.4,45.0,42.0,37.3,35.0,70,68,66,30.37,30.33,5,1,10,0.39
2013-1-31,52.0,47.8,44.0,41.0,37.8,34.0,72,68,64,30.35,30.27,3,0,8,0.06